createdAt,value
2022-12-15T00:02:43.393Z,42.80
2022-12-15T00:05:28.801Z,37.08
2022-12-15T00:08:14.402Z,38.60
2022-12-15T00:10:59.588Z,38.10
2022-12-15T00:13:44.950Z,41.20
2022-12-15T00:16:30.415Z,45.70
2022-12-15T00:19:15.804Z,36.70
2022-12-15T00:22:01.122Z,39.47
2022-12-15T00:24:49.609Z,37.80
2022-12-15T00:27:35.314Z,39.63
2022-12-15T00:30:21.276Z,37.47
2022-12-15T00:33:06.539Z,32.72
2022-12-15T00:35:51.942Z,36.88
2022-12-15T00:38:37.292Z,34.60
2022-12-15T00:41:04.802Z,37.78
2022-12-15T00:43:33.766Z,37.10
2022-12-15T00:46:20.728Z,36.38
2022-12-15T00:48:48.306Z,35.78
2022-12-15T00:51:16.306Z,38.72
2022-12-15T00:54:01.988Z,35.60
2022-12-15T00:56:47.866Z,39.00
2022-12-15T00:59:34.198Z,40.40
2022-12-15T01:02:20.553Z,36.35
2022-12-15T01:05:06.189Z,33.53
2022-12-15T01:07:52.180Z,33.45
2022-12-15T01:10:38.013Z,37.03
2022-12-15T01:13:24.129Z,38.47
2022-12-15T01:16:09.485Z,33.78
2022-12-15T01:18:55.105Z,38.42
2022-12-15T01:21:25.016Z,35.22
2022-12-15T01:23:52.529Z,34.22
2022-12-15T01:26:19.566Z,32.00
2022-12-15T01:28:46.537Z,33.67
2022-12-15T01:31:13.649Z,30.38
2022-12-15T01:33:42.804Z,37.42
2022-12-15T01:36:10.610Z,36.85
2022-12-15T01:38:37.750Z,29.75
2022-12-15T01:41:11.373Z,35.38
2022-12-15T01:43:40.823Z,32.05
2022-12-15T01:46:13.850Z,32.03
2022-12-15T01:48:49.187Z,31.13
2022-12-15T01:51:23.781Z,32.63
2022-12-15T01:54:06.289Z,32.42
2022-12-15T01:56:46.016Z,33.80
2022-12-15T01:59:22.415Z,32.20
2022-12-15T02:01:50.024Z,33.03
2022-12-15T02:04:20.998Z,34.78
2022-12-15T02:06:48.308Z,33.00
2022-12-15T02:09:16.492Z,31.88
2022-12-15T02:12:00.841Z,35.08
2022-12-15T02:14:45.749Z,31.83
2022-12-15T02:17:24.440Z,29.30
2022-12-15T02:20:35.512Z,34.45
2022-12-15T02:23:22.658Z,31.52
2022-12-15T02:26:20.538Z,27.83
2022-12-15T02:29:10.406Z,26.60
2022-12-15T02:31:50.504Z,30.83
2022-12-15T02:34:40.731Z,30.92
2022-12-15T02:37:22.587Z,31.67
2022-12-15T02:39:49.522Z,30.33
2022-12-15T02:42:16.836Z,32.28
2022-12-15T02:44:43.630Z,29.90
2022-12-15T02:47:38.938Z,29.05
2022-12-15T02:50:26.957Z,26.95
2022-12-15T02:53:20.930Z,25.42
2022-12-15T02:56:00.810Z,27.17
2022-12-15T02:58:37.295Z,30.33
2022-12-15T03:01:12.177Z,29.63
2022-12-15T03:03:41.002Z,29.75
2022-12-15T03:06:09.592Z,26.15
2022-12-15T03:08:36.444Z,28.33
2022-12-15T03:11:03.469Z,26.63
2022-12-15T03:13:30.759Z,27.65
2022-12-15T03:15:59.532Z,28.20
2022-12-15T03:18:27.180Z,25.65
2022-12-15T03:20:54.100Z,25.67
2022-12-15T03:23:22.999Z,27.38
2022-12-15T03:25:50.457Z,30.00
2022-12-15T03:28:18.034Z,23.75
2022-12-15T03:30:45.242Z,30.75
2022-12-15T03:33:17.444Z,28.88
2022-12-15T03:35:44.401Z,27.60
2022-12-15T03:38:11.479Z,29.20
2022-12-15T03:40:38.341Z,28.88
2022-12-15T03:43:05.291Z,25.95
2022-12-15T03:45:32.288Z,26.35
2022-12-15T03:47:59.195Z,24.25
2022-12-15T03:50:28.616Z,28.13
2022-12-15T03:53:00.442Z,26.42
2022-12-15T03:55:28.915Z,26.95
2022-12-15T03:57:56.301Z,25.88
2022-12-15T04:00:24.780Z,22.77
2022-12-15T04:02:52.013Z,23.88
2022-12-15T04:05:23.051Z,23.20
2022-12-15T04:07:50.005Z,24.25
2022-12-15T04:10:17.041Z,24.05
2022-12-15T04:12:43.951Z,23.73
2022-12-15T04:15:12.465Z,26.45
2022-12-15T04:17:39.414Z,26.98
2022-12-15T04:20:10.321Z,24.52
2022-12-15T04:22:39.546Z,25.33
2022-12-15T04:25:27.204Z,26.45
2022-12-15T04:28:13.078Z,23.08
2022-12-15T04:31:04.587Z,23.63
2022-12-15T04:33:50.467Z,28.25
2022-12-15T04:36:36.153Z,27.90
2022-12-15T04:39:23.988Z,22.40
2022-12-15T04:42:11.011Z,27.00
2022-12-15T04:44:56.310Z,25.48
2022-12-15T04:47:41.833Z,25.73
2022-12-15T04:50:27.612Z,23.02
2022-12-15T04:53:12.983Z,26.73
2022-12-15T04:55:58.317Z,23.70
2022-12-15T04:58:43.593Z,22.80
2022-12-15T05:01:29.079Z,27.75
2022-12-15T05:04:14.719Z,24.13
2022-12-15T05:07:00.051Z,24.30
2022-12-15T05:09:45.553Z,24.90
2022-12-15T05:12:31.029Z,27.25
2022-12-15T05:15:17.000Z,26.33
2022-12-15T05:18:02.492Z,25.90
2022-12-15T05:20:50.104Z,25.52
2022-12-15T05:23:35.793Z,24.65
2022-12-15T05:26:21.073Z,23.98
2022-12-15T05:29:06.649Z,23.92
2022-12-15T05:31:51.654Z,25.65
2022-12-15T05:34:23.448Z,27.45
2022-12-15T05:36:50.970Z,25.00
2022-12-15T05:39:18.055Z,21.25
2022-12-15T05:41:45.021Z,24.20
2022-12-15T05:44:12.371Z,23.83
2022-12-15T05:46:39.625Z,25.15
2022-12-15T05:49:08.616Z,22.35
2022-12-15T05:51:40.388Z,21.42
2022-12-15T05:54:09.060Z,25.38
2022-12-15T05:56:36.287Z,22.52
2022-12-15T05:59:03.690Z,22.95
2022-12-15T06:01:31.575Z,23.15
2022-12-15T06:03:59.453Z,24.20
2022-12-15T06:06:26.483Z,23.02
2022-12-15T06:08:53.505Z,23.52
2022-12-15T06:11:22.198Z,23.20
2022-12-15T06:13:49.336Z,26.25
2022-12-15T06:16:21.348Z,21.13
2022-12-15T06:18:54.868Z,23.15
2022-12-15T06:21:24.768Z,24.13
2022-12-15T06:23:52.635Z,26.88
2022-12-15T06:26:28.296Z,28.60
2022-12-15T06:28:57.535Z,20.73
2022-12-15T06:31:25.756Z,24.27
2022-12-15T06:34:01.026Z,23.95
2022-12-15T06:36:30.721Z,21.80
2022-12-15T06:39:02.359Z,22.23
2022-12-15T06:41:30.691Z,22.55
2022-12-15T06:43:58.004Z,23.08
2022-12-15T06:46:26.634Z,25.58
2022-12-15T06:48:53.722Z,24.20
2022-12-15T06:51:21.109Z,22.27
2022-12-15T06:53:54.204Z,23.85
2022-12-15T06:56:34.681Z,26.20
2022-12-15T06:59:06.390Z,26.85
2022-12-15T07:01:33.825Z,24.77
2022-12-15T07:04:02.933Z,26.52
2022-12-15T07:06:36.587Z,23.33
2022-12-15T07:09:07.164Z,26.38
2022-12-15T07:11:35.255Z,28.65
2022-12-15T07:14:02.243Z,24.15
2022-12-15T07:16:29.204Z,25.30
2022-12-15T07:18:56.128Z,36.75
2022-12-15T07:21:23.100Z,65.88
2022-12-15T07:23:55.285Z,45.60
2022-12-15T07:26:23.731Z,36.58
2022-12-15T07:28:51.277Z,27.48
2022-12-15T07:31:18.355Z,30.65
2022-12-15T07:33:45.528Z,27.85
2022-12-15T07:36:13.224Z,29.40
2022-12-15T07:38:40.123Z,27.85
2022-12-15T07:41:08.132Z,32.85
2022-12-15T07:43:36.202Z,44.63
2022-12-15T07:46:05.055Z,32.38
2022-12-15T07:48:32.901Z,30.23
2022-12-15T07:51:11.034Z,26.80
2022-12-15T07:53:42.503Z,26.40
2022-12-15T07:56:10.434Z,27.63
2022-12-15T07:58:38.751Z,27.05
2022-12-15T08:01:08.381Z,22.13
2022-12-15T08:03:36.699Z,28.02
2022-12-15T08:06:15.083Z,30.73
2022-12-15T08:08:44.360Z,27.98
2022-12-15T08:11:14.319Z,27.05
2022-12-15T08:16:31.501Z,23.77
2022-12-15T08:18:58.491Z,27.60
2022-12-15T08:21:25.428Z,28.00
2022-12-15T08:23:52.521Z,27.92
2022-12-15T08:26:22.675Z,23.38
2022-12-15T08:28:54.239Z,25.25
2022-12-15T08:31:23.649Z,25.77
2022-12-15T08:33:51.140Z,25.88
2022-12-15T08:36:18.991Z,28.45
2022-12-15T08:38:46.885Z,20.77
2022-12-15T08:41:17.109Z,26.88
2022-12-15T08:43:48.533Z,30.58
2022-12-15T08:46:17.909Z,22.98
2022-12-15T08:48:45.679Z,28.00
2022-12-15T08:51:14.877Z,27.92
2022-12-15T08:53:42.042Z,25.10
2022-12-15T08:56:18.156Z,24.75
2022-12-15T08:58:46.970Z,25.90
2022-12-15T09:01:22.375Z,25.33
2022-12-15T09:03:52.115Z,29.15
2022-12-15T09:06:22.394Z,28.92
2022-12-15T09:08:50.421Z,25.13
2022-12-15T09:11:18.137Z,26.77
2022-12-15T09:13:44.992Z,29.33
2022-12-15T09:16:15.303Z,26.55
2022-12-15T09:18:44.183Z,30.38
2022-12-15T09:21:11.931Z,27.80
2022-12-15T09:23:39.903Z,30.05
2022-12-15T09:26:14.669Z,27.38
2022-12-15T09:28:45.247Z,26.52
2022-12-15T09:31:23.573Z,34.70
2022-12-15T09:33:55.697Z,28.08
2022-12-15T09:36:23.353Z,26.40
2022-12-15T09:38:50.384Z,27.20
2022-12-15T09:41:23.791Z,24.52
2022-12-15T09:44:13.443Z,25.85
2022-12-15T09:47:06.063Z,29.42
2022-12-15T09:49:53.328Z,25.17
2022-12-15T09:52:22.802Z,30.70
2022-12-15T09:54:50.003Z,33.00
2022-12-15T09:57:32.005Z,23.55
2022-12-15T10:00:11.769Z,25.98
2022-12-15T10:03:16.589Z,27.98
2022-12-15T10:06:20.045Z,29.67
2022-12-15T10:09:09.333Z,26.42
2022-12-15T10:12:00.989Z,29.63
2022-12-15T10:14:35.279Z,24.70
2022-12-15T10:17:21.528Z,28.52
2022-12-15T10:20:00.477Z,30.80
2022-12-15T10:22:38.064Z,31.98
2022-12-15T10:28:25.173Z,28.58
2022-12-15T10:31:03.481Z,25.58
2022-12-15T10:33:39.855Z,31.25
2022-12-15T10:36:16.072Z,25.73
2022-12-15T10:41:34.451Z,27.80
2022-12-15T10:44:02.759Z,25.30
2022-12-15T10:46:31.992Z,31.83
2022-12-15T10:49:21.425Z,26.88
2022-12-15T10:51:54.435Z,29.85
2022-12-15T10:54:22.068Z,33.65
2022-12-15T10:56:54.667Z,23.88
2022-12-15T10:59:25.502Z,26.15
2022-12-15T11:01:53.169Z,28.17
2022-12-15T11:04:28.602Z,27.67
2022-12-15T11:07:01.416Z,30.73
2022-12-15T11:09:39.055Z,30.10
2022-12-15T11:12:40.892Z,24.33
2022-12-15T11:15:23.091Z,33.33
2022-12-15T11:18:13.679Z,31.23
2022-12-15T11:20:44.749Z,35.33
2022-12-15T11:23:48.759Z,32.40
2022-12-15T11:26:22.708Z,43.40
2022-12-15T11:28:58.928Z,40.42
2022-12-15T11:31:38.538Z,33.60
2022-12-15T11:34:17.627Z,33.67
2022-12-15T11:36:44.499Z,29.35
2022-12-15T11:39:23.972Z,28.48
2022-12-15T11:42:01.515Z,29.92
2022-12-15T11:44:38.537Z,25.55
2022-12-15T11:47:40.747Z,32.90
2022-12-15T11:50:34.149Z,32.22
2022-12-15T11:53:26.190Z,30.95
2022-12-15T11:56:14.533Z,27.70
2022-12-15T11:58:50.026Z,31.80
2022-12-15T12:01:55.274Z,27.13
2022-12-15T12:04:42.251Z,30.38
2022-12-15T12:07:38.447Z,32.90
2022-12-15T12:10:16.782Z,28.65
2022-12-15T12:12:56.199Z,29.70
2022-12-15T12:15:37.622Z,30.75
2022-12-15T12:18:10.812Z,30.70
2022-12-15T12:20:47.108Z,32.20
2022-12-15T12:23:24.386Z,28.38
2022-12-15T12:26:12.901Z,33.00
2022-12-15T12:32:04.202Z,34.58
2022-12-15T12:34:41.080Z,35.22
2022-12-15T12:37:23.851Z,36.22
2022-12-15T12:39:54.062Z,31.77
2022-12-15T12:42:34.038Z,29.70
2022-12-15T12:45:02.282Z,34.58
2022-12-15T12:47:38.354Z,34.08
2022-12-15T12:50:15.219Z,34.28
2022-12-15T12:52:55.166Z,37.80
2022-12-15T12:55:45.656Z,38.63
2022-12-15T12:58:32.145Z,33.80
2022-12-15T13:01:11.230Z,36.60
2022-12-15T13:03:43.577Z,37.97
2022-12-15T13:06:36.263Z,36.30
2022-12-15T13:09:23.204Z,38.03
2022-12-15T13:11:52.794Z,42.05
2022-12-15T13:14:26.400Z,37.63
2022-12-15T13:17:28.010Z,46.88
2022-12-15T13:20:01.404Z,33.50
2022-12-15T13:22:34.324Z,39.60
2022-12-15T13:25:03.127Z,33.67
2022-12-15T13:27:38.254Z,38.65
2022-12-15T13:30:07.761Z,37.83
2022-12-15T13:32:36.361Z,40.80
2022-12-15T13:35:12.349Z,37.30
2022-12-15T13:37:49.059Z,37.65
2022-12-15T13:40:35.399Z,41.28
2022-12-15T13:43:05.145Z,37.15
2022-12-15T13:45:42.972Z,31.60
2022-12-15T13:48:24.140Z,35.20
2022-12-15T13:51:37.241Z,36.10
2022-12-15T13:54:31.370Z,34.05
2022-12-15T13:57:03.512Z,37.10
2022-12-15T13:59:41.765Z,37.65
2022-12-15T14:02:27.443Z,34.78
2022-12-15T14:05:18.932Z,36.92
2022-12-15T14:07:54.371Z,40.50
2022-12-15T14:10:24.933Z,44.00
2022-12-15T14:12:53.215Z,40.88
2022-12-15T14:15:26.623Z,34.83
2022-12-15T14:17:56.118Z,40.78
2022-12-15T14:20:27.210Z,32.42
2022-12-15T14:22:55.014Z,32.00
2022-12-15T14:25:24.922Z,31.33
2022-12-15T14:27:52.032Z,40.28
2022-12-15T14:30:29.488Z,32.05
2022-12-15T14:33:18.484Z,25.67
2022-12-15T14:35:49.907Z,29.98
2022-12-15T14:38:21.945Z,28.08
2022-12-15T14:40:51.979Z,27.90
2022-12-15T14:43:29.148Z,28.63
2022-12-15T14:46:05.482Z,34.30
2022-12-15T14:48:41.556Z,30.92
2022-12-15T14:51:12.789Z,35.80
2022-12-15T14:53:41.841Z,42.65
2022-12-15T14:56:29.391Z,33.63
2022-12-15T14:59:00.310Z,29.48
2022-12-15T15:01:31.093Z,32.25
2022-12-15T15:03:06.627Z,30.83
2022-12-15T15:03:12.307Z,27.88
2022-12-15T15:03:12.732Z,29.92
2022-12-15T15:04:24.542Z,32.35
2022-12-15T15:06:56.017Z,24.70
2022-12-15T15:09:55.624Z,30.90
2022-12-15T15:12:25.890Z,28.58
2022-12-15T15:15:03.063Z,26.27
2022-12-15T15:17:37.796Z,31.05
2022-12-15T15:20:17.630Z,32.50
2022-12-15T15:23:02.316Z,29.83
2022-12-15T15:25:40.882Z,29.23
2022-12-15T15:28:20.089Z,31.98
2022-12-15T15:30:50.248Z,32.35
2022-12-15T15:33:19.384Z,26.02
2022-12-15T15:35:54.061Z,36.30
2022-12-15T15:38:26.998Z,31.90
2022-12-15T15:40:56.955Z,35.30
2022-12-15T15:43:25.787Z,39.00
2022-12-15T15:46:14.622Z,29.73
2022-12-15T15:48:54.402Z,27.25
2022-12-15T15:51:23.811Z,33.00
2022-12-15T15:53:50.918Z,38.92
2022-12-15T15:56:18.305Z,27.75
2022-12-15T15:58:45.423Z,35.97
2022-12-15T16:01:13.656Z,29.73
2022-12-15T16:03:41.720Z,26.50
2022-12-15T16:06:20.563Z,27.02
2022-12-15T16:08:51.920Z,28.25
2022-12-15T16:11:20.119Z,30.17
2022-12-15T16:13:47.135Z,29.67
2022-12-15T16:16:23.922Z,33.95
2022-12-15T16:18:51.103Z,31.60
2022-12-15T16:21:19.773Z,27.95
2022-12-15T16:23:48.476Z,33.33
2022-12-15T16:26:19.979Z,30.33
2022-12-15T16:28:47.028Z,27.38
2022-12-15T16:31:32.955Z,31.30
2022-12-15T16:34:05.214Z,33.10
2022-12-15T16:36:32.911Z,37.97
2022-12-15T16:39:01.237Z,31.52
2022-12-15T16:41:28.531Z,36.95
2022-12-15T16:43:55.499Z,34.75
2022-12-15T16:46:22.546Z,27.80
2022-12-15T16:48:49.497Z,29.98
2022-12-15T16:51:34.368Z,30.92
2022-12-15T16:54:01.716Z,33.42
2022-12-15T16:56:28.622Z,33.05
2022-12-15T16:59:15.585Z,27.58
2022-12-15T17:01:44.494Z,32.58
2022-12-15T17:04:12.179Z,30.88
2022-12-15T17:06:39.583Z,36.15
2022-12-15T17:09:08.860Z,37.15
2022-12-15T17:11:35.951Z,32.25
2022-12-15T17:14:03.106Z,29.85
2022-12-15T17:16:30.230Z,36.05
2022-12-15T17:18:57.336Z,34.75
2022-12-15T17:21:29.502Z,35.03
2022-12-15T17:24:04.325Z,30.73
2022-12-15T17:26:33.307Z,34.72
2022-12-15T17:29:07.944Z,42.17
2022-12-15T17:31:36.165Z,36.38
2022-12-15T17:34:30.747Z,39.05
2022-12-15T17:37:06.114Z,43.08
2022-12-15T17:39:34.945Z,29.40
2022-12-15T17:42:02.877Z,36.63
2022-12-15T17:44:35.561Z,38.67
2022-12-15T17:47:05.494Z,36.75
2022-12-15T17:49:35.968Z,31.98
2022-12-15T17:52:19.119Z,37.42
2022-12-15T17:54:46.114Z,35.53
2022-12-15T17:57:13.136Z,34.75
2022-12-15T17:59:40.344Z,34.70
2022-12-15T18:02:12.059Z,42.58
2022-12-15T18:04:39.273Z,47.10
2022-12-15T18:07:06.540Z,41.15
2022-12-15T18:09:33.422Z,45.47
2022-12-15T18:12:00.345Z,38.22
2022-12-15T18:14:27.845Z,43.17
2022-12-15T18:16:55.261Z,44.50
2022-12-15T18:19:23.302Z,39.38
2022-12-15T18:21:50.213Z,46.53
2022-12-15T18:24:19.301Z,46.72
2022-12-15T18:26:46.628Z,45.03
2022-12-15T18:29:17.844Z,42.13
2022-12-15T18:31:47.116Z,43.45
2022-12-15T18:34:17.598Z,48.53
2022-12-15T18:36:45.066Z,46.08
2022-12-15T18:39:20.452Z,46.78
2022-12-15T18:41:48.597Z,47.75
2022-12-15T18:44:26.494Z,45.90
2022-12-15T18:46:55.169Z,42.85
2022-12-15T18:49:24.595Z,44.75
2022-12-15T18:51:58.014Z,41.08
2022-12-15T18:54:30.939Z,40.30
2022-12-15T18:56:57.853Z,42.67
2022-12-15T18:59:27.399Z,39.92
2022-12-15T19:01:54.778Z,38.13
2022-12-15T19:04:21.767Z,43.08
2022-12-15T19:06:48.717Z,36.38
2022-12-15T19:09:23.369Z,39.25
2022-12-15T19:12:09.125Z,40.42
2022-12-15T19:14:42.714Z,38.38
2022-12-15T19:17:34.004Z,43.08
2022-12-15T19:20:37.158Z,41.50
2022-12-15T19:23:05.283Z,37.92
2022-12-15T19:25:32.965Z,40.55
2022-12-15T19:28:01.109Z,39.28
2022-12-15T19:30:30.758Z,41.60
2022-12-15T19:32:57.979Z,39.13
2022-12-15T19:35:27.403Z,45.08
2022-12-15T19:37:57.678Z,42.22
2022-12-15T19:40:27.756Z,34.85
2022-12-15T19:42:55.511Z,35.75
2022-12-15T19:45:25.987Z,41.90
2022-12-15T19:47:53.142Z,40.70
2022-12-15T19:50:29.330Z,40.05
2022-12-15T19:52:59.600Z,39.88
2022-12-15T19:55:34.747Z,32.58
2022-12-15T19:58:28.599Z,37.83
2022-12-15T20:01:01.137Z,39.15
2022-12-15T20:03:30.217Z,32.53
2022-12-15T20:05:59.554Z,33.03
2022-12-15T20:08:29.641Z,33.47
2022-12-15T20:10:57.416Z,35.38
2022-12-15T20:13:26.485Z,30.30
2022-12-15T20:15:54.685Z,32.50
2022-12-15T20:18:22.115Z,34.70
2022-12-15T20:20:50.946Z,32.65
2022-12-15T20:23:21.479Z,33.33
2022-12-15T20:25:48.549Z,58.88
2022-12-15T20:28:27.632Z,43.47
2022-12-15T20:30:56.292Z,41.67
2022-12-15T20:33:23.425Z,39.78
2022-12-15T20:35:51.627Z,40.30
2022-12-15T20:38:31.934Z,40.13
2022-12-15T20:41:01.533Z,35.25
2022-12-15T20:43:31.617Z,34.88
2022-12-15T20:46:19.261Z,33.03
2022-12-15T20:48:47.164Z,34.90
2022-12-15T20:51:26.305Z,34.40
2022-12-15T20:53:55.765Z,33.13
2022-12-15T20:56:23.426Z,32.50
2022-12-15T20:58:55.318Z,32.90
2022-12-15T21:01:29.114Z,31.45
2022-12-15T21:03:57.638Z,32.42
2022-12-15T21:06:25.676Z,31.13
2022-12-15T21:08:52.965Z,35.40
2022-12-15T21:11:32.709Z,32.38
2022-12-15T21:14:04.218Z,32.38
2022-12-15T21:16:32.997Z,33.30
2022-12-15T21:19:22.392Z,34.15
2022-12-15T21:21:54.955Z,32.00
2022-12-15T21:24:28.637Z,32.00
2022-12-15T21:26:56.191Z,34.28
2022-12-15T21:29:25.596Z,34.92
2022-12-15T21:31:52.769Z,33.85
2022-12-15T21:34:19.784Z,37.40
2022-12-15T21:36:51.788Z,32.65
2022-12-15T21:39:39.669Z,33.75
2022-12-15T21:42:12.062Z,33.90
2022-12-15T21:44:38.991Z,31.13
2022-12-15T21:47:25.651Z,36.83
2022-12-15T21:49:52.705Z,36.00
2022-12-15T21:52:19.951Z,39.20
2022-12-15T21:54:46.964Z,33.75
2022-12-15T21:57:13.910Z,43.42
2022-12-15T21:59:40.891Z,36.05
2022-12-15T22:02:25.550Z,37.85
2022-12-15T22:04:52.823Z,40.80
2022-12-15T22:07:22.220Z,36.75
2022-12-15T22:09:49.161Z,37.25
2022-12-15T22:12:20.308Z,37.60
2022-12-15T22:14:47.513Z,44.30
2022-12-15T22:17:20.171Z,42.00
2022-12-15T22:19:47.731Z,44.45
2022-12-15T22:22:15.577Z,41.78
2022-12-15T22:24:42.870Z,45.20
2022-12-15T22:27:32.506Z,44.33
2022-12-15T22:29:59.716Z,44.05
2022-12-15T22:32:26.641Z,50.85
2022-12-15T22:34:53.664Z,46.92
2022-12-15T22:37:20.587Z,43.08
2022-12-15T22:39:49.480Z,46.42
2022-12-15T22:42:18.860Z,42.97
2022-12-15T22:44:46.079Z,41.35
2022-12-15T22:47:13.149Z,39.50
2022-12-15T22:49:41.201Z,44.63
2022-12-15T22:52:19.631Z,40.50
2022-12-15T22:54:47.880Z,44.33
2022-12-15T22:57:26.727Z,46.22
2022-12-15T23:00:05.704Z,47.67
2022-12-15T23:02:36.933Z,42.58
2022-12-15T23:05:05.880Z,40.33
2022-12-15T23:07:34.037Z,43.72
2022-12-15T23:10:19.854Z,41.92
2022-12-15T23:12:47.307Z,41.97
2022-12-15T23:15:32.872Z,40.13
2022-12-15T23:17:59.846Z,39.88
2022-12-15T23:20:26.907Z,42.30
2022-12-15T23:22:54.096Z,44.05
2022-12-15T23:25:21.938Z,42.83
2022-12-15T23:27:48.819Z,39.65
2022-12-15T23:30:15.998Z,37.08
2022-12-15T23:32:43.361Z,42.40
2022-12-15T23:35:10.543Z,44.63
2022-12-15T23:37:37.474Z,38.67
2022-12-15T23:40:04.939Z,42.08
2022-12-15T23:42:31.930Z,44.13
2022-12-15T23:44:58.979Z,38.80
2022-12-15T23:47:25.909Z,45.60
2022-12-15T23:49:53.187Z,42.78
2022-12-15T23:52:20.520Z,38.53
2022-12-15T23:54:47.434Z,41.85
2022-12-15T23:57:14.411Z,38.88
2022-12-15T23:59:41.304Z,39.47
